
Distance (Route):
Temperature : 20.8°C
Humidity : 49.8%
Pressure : 0hPa| Receiver | Date | Latitude | Longitude | Direction | Speed | Altitude | Climb | Temperature | Humidity | Pressure | Voltage | Killtimer | Uptime | BKT | XDATA |
|---|---|---|---|---|---|---|---|---|---|---|---|---|---|---|---|
| LZ4TU-5 | 2026-08-31 06:56:49 | 44.06823 | 22.83606 | 259° | 13km/h | 663m | -13.3m/s | 20.8°C | 49.8% | 0hPa | 0V | 00:00:00 | 00:00:00 | 00:00:00 | |
| LZ4TU-5 | 2026-08-31 06:56:43 | 44.06820 | 22.83635 | 293° | 18km/h | 745m | -13.2m/s | 22.8°C | 44.4% | 0hPa | 0V | 00:00:00 | 00:00:00 | 00:00:00 | |
| LZ4TU-5 | 2026-08-31 06:56:38 | 44.06810 | 22.83667 | 294° | 22km/h | 813m | -13.2m/s | 22.7°C | 44.3% | 0hPa | 0V | 00:00:00 | 00:00:00 | 00:00:00 | |
| LZ4TU-5 | 2026-08-31 06:56:33 | 44.06800 | 22.83705 | 287° | 24km/h | 881m | -13.2m/s | 22.2°C | 45.2% | 0hPa | 0V | 00:00:00 | 00:00:00 | 00:00:00 | |
| LZ4TU-5 | 2026-08-31 06:56:28 | 44.06791 | 22.83748 | 290° | 26km/h | 950m | -13.3m/s | 22.2°C | 46.3% | 0hPa | 0V | 00:00:00 | 00:00:00 | 00:00:00 | |
| LZ4TU-5 | 2026-08-31 06:56:24 | 44.06782 | 22.83783 | 293° | 26km/h | 1004m | -13.3m/s | 21.8°C | 49.0% | 0hPa | 0V | 00:00:00 | 00:00:00 | 00:00:00 | |
| LZ4TU-5 | 2026-08-31 06:56:12 | 44.06750 | 22.83884 | 299° | 27km/h | 1152m | -13.5m/s | 20.7°C | 52.5% | 0hPa | 0V | 00:00:00 | 00:00:00 | 00:00:00 | |
| LZ4TU-5 | 2026-08-31 06:56:07 | 44.06732 | 22.83928 | 300° | 27km/h | 1222m | -13.6m/s | 20.1°C | 54.2% | 0hPa | 0V | 00:00:00 | 00:00:00 | 00:00:00 | |
| LZ4TU-5 | 2026-08-31 06:56:03 | 44.06718 | 22.83962 | 304° | 29km/h | 1278m | -13.6m/s | 19.7°C | 55.1% | 0hPa | 0V | 00:00:00 | 00:00:00 | 00:00:00 | |
| LZ4TU-5 | 2026-08-31 06:55:59 | 44.06701 | 22.83995 | 310° | 29km/h | 1334m | -13.6m/s | 19.4°C | 55.4% | 0hPa | 0V | 00:00:00 | 00:00:00 | 00:00:00 | |
| LZ4TU-5 | 2026-08-31 06:55:55 | 44.06677 | 22.84034 | 313° | 27km/h | 1405m | -13.6m/s | 19.0°C | 54.8% | 0hPa | 0V | 00:00:00 | 00:00:00 | 00:00:00 | |
| LZ4TU-5 | 2026-08-31 06:55:49 | 44.06654 | 22.84069 | 310° | 26km/h | 1476m | -13.6m/s | 18.6°C | 54.4% | 0hPa | 0V | 00:00:00 | 00:00:00 | 00:00:00 | |
| LZ4TU-5 | 2026-08-31 06:55:45 | 44.06639 | 22.84097 | 304° | 24km/h | 1532m | -13.5m/s | 18.1°C | 55.1% | 0hPa | 0V | 00:00:00 | 00:00:00 | 00:00:00 | |
| LZ4TU-5 | 2026-08-31 06:55:41 | 44.06624 | 22.84126 | 302° | 26km/h | 1586m | -13.5m/s | 17.6°C | 56.1% | 0hPa | 0V | 00:00:00 | 00:00:00 | 00:00:00 | |
| LZ4TU-5 | 2026-08-31 06:55:36 | 44.06611 | 22.84163 | 301° | 24km/h | 1643m | -13.6m/s | 17.0°C | 56.7% | 0hPa | 0V | 00:00:00 | 00:00:00 | 00:00:00 | |
| LZ4TU-5 | 2026-08-31 06:55:32 | 44.06600 | 22.84192 | 297° | 24km/h | 1699m | -13.6m/s | 16.6°C | 57.4% | 0hPa | 0V | 00:00:00 | 00:00:00 | 00:00:00 | |
| LZ4TU-5 | 2026-08-31 06:55:27 | 44.06587 | 22.84228 | 295° | 22km/h | 1770m | -13.7m/s | 16.1°C | 58.3% | 0hPa | 0V | 00:00:00 | 00:00:00 | 00:00:00 | |
| LZ4TU-5 | 2026-08-31 06:55:22 | 44.06575 | 22.84264 | 295° | 24km/h | 1841m | -13.8m/s | 15.7°C | 58.2% | 0hPa | 0V | 00:00:00 | 00:00:00 | 00:00:00 | |
| LZ4TU-5 | 2026-08-31 06:55:17 | 44.06563 | 22.84299 | 300° | 18km/h | 1913m | -13.8m/s | 15.2°C | 61.4% | 0hPa | 0V | 00:00:00 | 00:00:00 | 00:00:00 | |
| LZ4TU-5 | 2026-08-31 06:55:13 | 44.06553 | 22.84319 | 310° | 16km/h | 1970m | -13.7m/s | 14.8°C | 63.2% | 0hPa | 0V | 00:00:00 | 00:00:00 | 00:00:00 | |
| LZ4TU-5 | 2026-08-31 06:55:09 | 44.06543 | 22.84335 | 316° | 13km/h | 2026m | -13.7m/s | 14.4°C | 65.2% | 0hPa | 0V | 00:00:00 | 00:00:00 | 00:00:00 | |
| LZ4TU-5 | 2026-08-31 06:55:04 | 44.06532 | 22.84354 | 319° | 13km/h | 2089m | -13.7m/s | 13.8°C | 67.2% | 0hPa | 0V | 00:00:00 | 00:00:00 | 00:00:00 | |
| LZ4TU-5 | 2026-08-31 06:54:59 | 44.06519 | 22.84365 | 336° | 11km/h | 2151m | -13.9m/s | 13.3°C | 69.3% | 0hPa | 0V | 00:00:00 | 00:00:00 | 00:00:00 | |
| LZ4TU-5 | 2026-08-31 06:54:54 | 44.06509 | 22.84372 | 333° | 5km/h | 2223m | -13.8m/s | 13.1°C | 61.4% | 0hPa | 0V | 00:00:00 | 00:00:00 | 00:00:00 | |
| LZ4TU-5 | 2026-08-31 06:54:49 | 44.06505 | 22.84374 | 0° | 0km/h | 2294m | -13.9m/s | 12.8°C | 55.1% | 0hPa | 0V | 00:00:00 | 00:00:00 | 00:00:00 | |
| LZ4TU-5 | 2026-08-31 06:54:45 | 44.06505 | 22.84373 | 134° | 2km/h | 2353m | -14.3m/s | 12.5°C | 49.7% | 0hPa | 0V | 00:00:00 | 00:00:00 | 00:00:00 | |
| LZ4TU-5 | 2026-08-31 06:54:40 | 44.06509 | 22.84367 | 135° | 11km/h | 2425m | -13.8m/s | 12.5°C | 40.3% | 0hPa | 0V | 00:00:00 | 00:00:00 | 00:00:00 | |
| LZ4TU-5 | 2026-08-31 06:54:35 | 44.06521 | 22.84346 | 133° | 18km/h | 2498m | -14.4m/s | 13.0°C | 23.3% | 0hPa | 0V | 00:00:00 | 00:00:00 | 00:00:00 | |
| LZ4TU-5 | 2026-08-31 06:54:30 | 44.06539 | 22.84319 | 128° | 26km/h | 2569m | -14.8m/s | 12.9°C | 21.8% | 0hPa | 0V | 00:00:00 | 00:00:00 | 00:00:00 | |
| LZ4TU-5 | 2026-08-31 06:54:21 | 44.06576 | 22.84249 | 129° | 29km/h | 2695m | -14.8m/s | 12.4°C | 22.0% | 0hPa | 0V | 00:00:00 | 00:00:00 | 00:00:00 | |
| LZ4TU-5 | 2026-08-31 06:54:16 | 44.06599 | 22.84208 | 130° | 31km/h | 2772m | -15.1m/s | 12.0°C | 20.8% | 0hPa | 0V | 00:00:00 | 00:00:00 | 00:00:00 | |
| LZ4TU-5 | 2026-08-31 06:54:11 | 44.06625 | 22.84166 | 133° | 31km/h | 2850m | -14.9m/s | 11.4°C | 20.2% | 0hPa | 0V | 00:00:00 | 00:00:00 | 00:00:00 | |
| LZ4TU-5 | 2026-08-31 06:54:06 | 44.06651 | 22.84126 | 134° | 31km/h | 2928m | -15.0m/s | 10.6°C | 31.5% | 0hPa | 0V | 00:00:00 | 00:00:00 | 00:00:00 | |
| LZ4TU-5 | 2026-08-31 06:54:01 | 44.06678 | 22.84086 | 133° | 31km/h | 3004m | -14.9m/s | 9.9°C | 31.6% | 0hPa | 0V | 00:00:00 | 00:00:00 | 00:00:00 | |
| LZ4TU-5 | 2026-08-31 06:53:56 | 44.06706 | 22.84043 | 133° | 31km/h | 3066m | -14.8m/s | 8.8°C | 59.9% | 0hPa | 0V | 00:00:00 | 00:00:00 | 00:00:00 | |
| LZ4TU-5 | 2026-08-31 06:53:51 | 44.06732 | 22.84004 | 131° | 29km/h | 3142m | -14.8m/s | 8.3°C | 60.3% | 0hPa | 0V | 00:00:00 | 00:00:00 | 00:00:00 | |
| LZ4TU-5 | 2026-08-31 06:53:47 | 44.06751 | 22.83972 | 131° | 29km/h | 3203m | -14.8m/s | 7.9°C | 57.7% | 0hPa | 0V | 00:00:00 | 00:00:00 | 00:00:00 | |
| LZ4TU-5 | 2026-08-31 06:53:42 | 44.06774 | 22.83932 | 128° | 31km/h | 3280m | -15.2m/s | 7.3°C | 61.9% | 0hPa | 0V | 00:00:00 | 00:00:00 | 00:00:00 | |
| LZ4TU-5 | 2026-08-31 06:53:37 | 44.06797 | 22.83891 | 127° | 29km/h | 3358m | -14.9m/s | 6.6°C | 69.5% | 0hPa | 0V | 00:00:00 | 00:00:00 | 00:00:00 | |
| LZ4TU-5 | 2026-08-31 06:53:33 | 44.06814 | 22.83857 | 126° | 29km/h | 3420m | -15.2m/s | 6.1°C | 71.5% | 0hPa | 0V | 00:00:00 | 00:00:00 | 00:00:00 | |
| LZ4TU-5 | 2026-08-31 06:53:29 | 44.06832 | 22.83825 | 128° | 29km/h | 3479m | -15.2m/s | 5.6°C | 73.8% | 0hPa | 0V | 00:00:00 | 00:00:00 | 00:00:00 | |
| LZ4TU-5 | 2026-08-31 06:53:24 | 44.06855 | 22.83783 | 130° | 29km/h | 3546m | -15.1m/s | 5.3°C | 70.9% | 0hPa | 0V | 00:00:00 | 00:00:00 | 00:00:00 | |
| LZ4TU-5 | 2026-08-31 06:53:19 | 44.06879 | 22.83743 | 128° | 29km/h | 3624m | -15.2m/s | 4.8°C | 69.8% | 0hPa | 0V | 00:00:00 | 00:00:00 | 00:00:00 | |
| LZ4TU-5 | 2026-08-31 06:53:14 | 44.06901 | 22.83700 | 127° | 31km/h | 3702m | -15.1m/s | 4.4°C | 67.4% | 0hPa | 0V | 00:00:00 | 00:00:00 | 00:00:00 | |
| LZ4TU-5 | 2026-08-31 06:53:09 | 44.06923 | 22.83656 | 123° | 31km/h | 3781m | -15.2m/s | 3.9°C | 68.9% | 0hPa | 0V | 00:00:00 | 00:00:00 | 00:00:00 | |
| LZ4TU-5 | 2026-08-31 06:53:04 | 44.06943 | 22.83610 | 119° | 31km/h | 3859m | -15.3m/s | 3.3°C | 68.8% | 0hPa | 0V | 00:00:00 | 00:00:00 | 00:00:00 | |
| LZ4TU-5 | 2026-08-31 06:52:59 | 44.06960 | 22.83558 | 113° | 33km/h | 3935m | -15.4m/s | 2.8°C | 67.8% | 0hPa | 0V | 00:00:00 | 00:00:00 | 00:00:00 | |
| LZ4TU-5 | 2026-08-31 06:52:55 | 44.06975 | 22.83505 | 111° | 31km/h | 4004m | -15.5m/s | 2.3°C | 66.4% | 0hPa | 0V | 00:00:00 | 00:00:00 | 00:00:00 | |
| LZ4TU-5 | 2026-08-31 06:52:49 | 44.06986 | 22.83455 | 110° | 29km/h | 4084m | -15.4m/s | 1.6°C | 66.9% | 0hPa | 0V | 00:00:00 | 00:00:00 | 00:00:00 | |
| LZ4TU-5 | 2026-08-31 06:52:45 | 44.06996 | 22.83417 | 110° | 27km/h | 4149m | -15.4m/s | 1.0°C | 65.3% | 0hPa | 0V | 00:00:00 | 00:00:00 | 00:00:00 | |
| LZ4TU-5 | 2026-08-31 06:52:40 | 44.07006 | 22.83377 | 112° | 22km/h | 4229m | -15.5m/s | 0.8°C | 49.7% | 0hPa | 0V | 00:00:00 | 00:00:00 | 00:00:00 | |
| LZ4TU-5 | 2026-08-31 06:52:35 | 44.07015 | 22.83346 | 109° | 16km/h | 4309m | -15.5m/s | 0.7°C | 27.1% | 0hPa | 0V | 00:00:00 | 00:00:00 | 00:00:00 | |
| LZ4TU-5 | 2026-08-31 06:52:30 | 44.07020 | 22.83323 | 106° | 13km/h | 4382m | -15.6m/s | 0.7°C | 11.6% | 0hPa | 0V | 00:00:00 | 00:00:00 | 00:00:00 | |
| LZ4TU-5 | 2026-08-31 06:52:25 | 44.07024 | 22.83299 | 100° | 15km/h | 4454m | -15.7m/s | 0.3°C | 28.8% | 0hPa | 0V | 00:00:00 | 00:00:00 | 00:00:00 | |
| LZ4TU-5 | 2026-08-31 06:52:21 | 44.07025 | 22.83279 | 96° | 15km/h | 4519m | -15.9m/s | -0.4°C | 0% | 0hPa | 0V | 00:00:00 | 00:00:00 | 00:00:00 | |
| LZ4TU-5 | 2026-08-31 06:50:55 | 44.07203 | 22.82796 | 139° | 22km/h | 5934m | -17.0m/s | -7.8°C | 13.8% | 0hPa | 0V | 00:00:00 | 00:00:00 | 00:00:00 | |
| LZ4TU-5 | 2026-08-31 06:50:50 | 44.07224 | 22.82769 | 134° | 24km/h | 6023m | -17.2m/s | -8.4°C | 13.8% | 0hPa | 0V | 00:00:00 | 00:00:00 | 00:00:00 | |
| LZ4TU-5 | 2026-08-31 06:49:27 | 44.07492 | 22.82108 | 126° | 29km/h | 7507m | -18.9m/s | -18.6°C | 11.3% | 0hPa | 0V | 00:00:00 | 00:00:00 | 00:00:00 | |
| LZ4TU-5 | 2026-08-31 06:49:23 | 44.07512 | 22.82068 | 125° | 27km/h | 7605m | -19.0m/s | -19.4°C | 11.8% | 0hPa | 0V | 00:00:00 | 00:00:00 | 00:00:00 | |
| LZ4TU-5 | 2026-08-31 06:48:00 | 44.07951 | 22.81442 | 140° | 46km/h | 9212m | -19.8m/s | -32.2°C | 21.4% | 0hPa | 0V | 00:00:00 | 00:00:00 | 00:00:00 | |
| LZ4TU-5 | 2026-08-31 06:47:55 | 44.07995 | 22.81387 | 136° | 47km/h | 9301m | -20.1m/s | -32.9°C | 22.6% | 0hPa | 0V | 00:00:00 | 00:00:00 | 00:00:00 | |
| LZ4TU-5 | 2026-08-31 06:46:39 | 44.08885 | 22.80433 | 147° | 60km/h | 10878m | -21.4m/s | -46.3°C | 30.7% | 0hPa | 0V | 00:00:00 | 00:00:00 | 00:00:00 | |
| LZ4TU-5 | 2026-08-31 06:46:35 | 44.08935 | 22.80386 | 148° | 58km/h | 10967m | -21.6m/s | -46.6°C | 29.6% | 0hPa | 0V | 00:00:00 | 00:00:00 | 00:00:00 | |
| LZ4TU-5 | 2026-08-31 06:45:15 | 44.10144 | 22.79575 | 157° | 60km/h | 12785m | -23.9m/s | -56.5°C | 6.1% | 0hPa | 0V | 00:00:00 | 00:00:00 | 00:00:00 | |
| LZ4TU-5 | 2026-08-31 06:45:10 | 44.10210 | 22.79527 | 146° | 55km/h | 12896m | -24.3m/s | -57.0°C | 5.1% | 0hPa | 0V | 00:00:00 | 00:00:00 | 00:00:00 | |
| LZ4TU-5 | 2026-08-31 06:43:47 | 44.10840 | 22.78341 | 132° | 44km/h | 15084m | -28.3m/s | -59.6°C | 0.0% | 0hPa | 0V | 00:00:00 | 00:00:00 | 00:00:00 | |
| LZ4TU-5 | 2026-08-31 06:43:42 | 44.10870 | 22.78285 | 117° | 37km/h | 15231m | -28.7m/s | -59.2°C | 0.0% | 0hPa | 0V | 00:00:00 | 00:00:00 | 00:00:00 | |
| LZ4TU-5 | 2026-08-31 06:42:00 | 44.11038 | 22.77341 | 46° | 13km/h | 18605m | -37.5m/s | -56.2°C | 0.0% | 0hPa | 0V | 00:00:00 | 00:00:00 | 00:00:00 | |
| LZ4TU-5 | 2026-08-31 06:41:56 | 44.11032 | 22.77325 | 83° | 16km/h | 18761m | -37.7m/s | -56.5°C | 0.0% | 0hPa | 0V | 00:00:00 | 00:00:00 | 00:00:00 | |
| LZ4TU-5 | 2026-08-31 06:40:28 | 44.11019 | 22.77400 | 302° | 16km/h | 22576m | -50.3m/s | -53.3°C | 0.0% | 0hPa | 0V | 00:00:00 | 00:00:00 | 00:00:00 | |
| LZ4TU-5 | 2026-08-31 06:40:23 | 44.11007 | 22.77420 | 324° | 13km/h | 22830m | -51.5m/s | -52.5°C | 0.0% | 0hPa | 0V | 00:00:00 | 00:00:00 | 00:00:00 | |
| LZ4TU-5 | 2026-08-31 06:38:59 | 44.10880 | 22.77648 | 7° | 5km/h | 27677m | -70.7m/s | -45.6°C | 0.0% | 0hPa | 0V | 00:00:00 | 00:00:00 | 00:00:00 | |
| LZ4TU-5 | 2026-08-31 06:38:54 | 44.10875 | 22.77645 | 39° | 7km/h | 28029m | -72.4m/s | -46.6°C | 0.0% | 0hPa | 0V | 00:00:00 | 00:00:00 | 00:00:00 | |
| OM5KV | 2026-08-31 06:38:02 | 44.10921 | 22.77665 | 166° | 24km/h | 30904m | 5.9m/s | -39.6°C | 0.0% | 0hPa | 0V | 00:00:00 | 00:00:00 | 00:00:00 | |
| OM5KV | 2026-08-31 06:37:57 | 44.10959 | 22.77678 | 207° | 26km/h | 30867m | 5.8m/s | -39.8°C | 0.0% | 0hPa | 0V | 00:00:00 | 00:00:00 | 00:00:00 | |
| OM5KV | 2026-08-31 06:37:56 | 44.10964 | 22.77681 | 192° | 20km/h | 30860m | 7.5m/s | -39.8°C | 0.0% | 0hPa | 0V | 00:00:00 | 00:00:00 | 00:00:00 | |
| OM5KV | 2026-08-31 06:37:51 | 44.10985 | 22.77669 | 169° | 20km/h | 30824m | 9.9m/s | -39.9°C | 0.0% | 0hPa | 0V | 00:00:00 | 00:00:00 | 00:00:00 | |
| OM5KV | 2026-08-31 06:37:44 | 44.11031 | 22.77676 | 116° | 22km/h | 30769m | 8.6m/s | -39.6°C | 0.0% | 0hPa | 0V | 00:00:00 | 00:00:00 | 00:00:00 | |
| LZ4TU-5 | 2026-08-31 06:37:39 | 44.11029 | 22.77651 | 159° | 13km/h | 30734m | 6.6m/s | -39.3°C | 0.0% | 0hPa | 0V | 00:00:00 | 00:00:00 | 00:00:00 | |
| OM5KV | 2026-08-31 06:37:38 | 44.11033 | 22.77651 | 193° | 20km/h | 30727m | 7.0m/s | -39.2°C | 0.0% | 0hPa | 0V | 00:00:00 | 00:00:00 | 00:00:00 | |
| LZ4TU-5 | 2026-08-31 06:37:34 | 44.11053 | 22.77668 | 201° | 18km/h | 30699m | 6.0m/s | -39.2°C | 0% | 0hPa | 0V | 00:00:00 | 00:00:00 | 00:00:00 | |
| OM5KV | 2026-08-31 06:37:32 | 44.11061 | 22.77665 | 125° | 18km/h | 30682m | 8.7m/s | -39.3°C | 0.0% | 0hPa | 0V | 00:00:00 | 00:00:00 | 00:00:00 | |
| OM5KV | 2026-08-31 06:37:27 | 44.11066 | 22.77643 | 272° | 18km/h | 30648m | 8.6m/s | -39.6°C | 0.0% | 0hPa | 0V | 00:00:00 | 00:00:00 | 00:00:00 | |
| OM5KV | 2026-08-31 06:37:26 | 44.11067 | 22.77651 | 258° | 24km/h | 30639m | 8.8m/s | -39.7°C | 0.0% | 0hPa | 0V | 00:00:00 | 00:00:00 | 00:00:00 | |
| OM5KV | 2026-08-31 06:37:20 | 44.11075 | 22.77653 | 87° | 35km/h | 30594m | 8.8m/s | -39.9°C | 0.0% | 0hPa | 0V | 00:00:00 | 00:00:00 | 00:00:00 | |
| OM5KV | 2026-08-31 06:37:15 | 44.11074 | 22.77632 | 285° | 26km/h | 30560m | 8.1m/s | -40.3°C | 0.0% | 0hPa | 0V | 00:00:00 | 00:00:00 | 00:00:00 | |
| OM5KV | 2026-08-31 06:37:14 | 44.11073 | 22.77644 | 277° | 38km/h | 30553m | 6.9m/s | -40.4°C | 0.0% | 0hPa | 0V | 00:00:00 | 00:00:00 | 00:00:00 | |
| OM5KV | 2026-08-31 06:37:09 | 44.11081 | 22.77665 | 88° | 18km/h | 30516m | 7.5m/s | -40.7°C | 0.0% | 0hPa | 0V | 00:00:00 | 00:00:00 | 00:00:00 | |
| OM5KV | 2026-08-31 06:37:02 | 44.11058 | 22.77665 | 311° | 26km/h | 30464m | 7.7m/s | -41.1°C | 0.0% | 0hPa | 0V | 00:00:00 | 00:00:00 | 00:00:00 | |
| OM5KV | 2026-08-31 06:36:57 | 44.11049 | 22.77680 | 20° | 4km/h | 30432m | 3.4m/s | -41.4°C | 0.0% | 0hPa | 0V | 00:00:00 | 00:00:00 | 00:00:00 | |
| OM5KV | 2026-08-31 06:36:49 | 44.11003 | 22.77688 | 103° | 9km/h | 30372m | 8.2m/s | -42.2°C | 0.0% | 0hPa | 0V | 00:00:00 | 00:00:00 | 00:00:00 | |
| OM5KV | 2026-08-31 06:36:44 | 44.10998 | 22.77677 | 5° | 20km/h | 30339m | 8.3m/s | -42.4°C | 0.0% | 0hPa | 0V | 00:00:00 | 00:00:00 | 00:00:00 | |
| OM5KV | 2026-08-31 06:36:42 | 44.10988 | 22.77681 | 319° | 22km/h | 30326m | 4.5m/s | -42.2°C | 0.0% | 0hPa | 0V | 00:00:00 | 00:00:00 | 00:00:00 | |
| OM5KV | 2026-08-31 06:36:37 | 44.10975 | 22.77701 | 116° | 7km/h | 30292m | 6.4m/s | -42.2°C | 0.0% | 0hPa | 0V | 00:00:00 | 00:00:00 | 00:00:00 | |
| OM5KV | 2026-08-31 06:36:36 | 44.10976 | 22.77699 | 153° | 13km/h | 30284m | 8.1m/s | -42.2°C | 0.0% | 0hPa | 0V | 00:00:00 | 00:00:00 | 00:00:00 | |
| OM5KV | 2026-08-31 06:36:30 | 44.10979 | 22.77710 | 351° | 31km/h | 30245m | 2.8m/s | -42.0°C | 0.0% | 0hPa | 0V | 00:00:00 | 00:00:00 | 00:00:00 | |
| OM5KV | 2026-08-31 06:36:25 | 44.10977 | 22.77706 | 189° | 26km/h | 30208m | 9.9m/s | -41.6°C | 0.0% | 0hPa | 0V | 00:00:00 | 00:00:00 | 00:00:00 | |
| OM5KV | 2026-08-31 06:36:15 | 44.10972 | 22.77724 | 208° | 13km/h | 30138m | 8.6m/s | -41.8°C | 0.0% | 0hPa | 0V | 00:00:00 | 00:00:00 | 00:00:00 | |
| LZ4TU-5 | 2026-08-31 06:36:10 | 44.10996 | 22.77736 | 240° | 11km/h | 30099m | 6.7m/s | -41.8°C | 0.0% | 0hPa | 0V | 00:00:00 | 00:00:00 | 00:00:00 | |
| LZ4TU-5 | 2026-08-31 06:36:05 | 44.11004 | 22.77735 | 185° | 11km/h | 30063m | 8.9m/s | -41.7°C | 0.0% | 0hPa | 0V | 00:00:00 | 00:00:00 | 00:00:00 | |
| OM5KV | 2026-08-31 06:36:01 | 44.11025 | 22.77758 | 217° | 27km/h | 30034m | 6.9m/s | -41.7°C | 0.0% | 0hPa | 0V | 00:00:00 | 00:00:00 | 00:00:00 | |
| OM5KV | 2026-08-31 06:36:00 | 44.11029 | 22.77762 | 197° | 16km/h | 30026m | 7.4m/s | -41.6°C | 0.0% | 0hPa | 0V | 00:00:00 | 00:00:00 | 00:00:00 | |
| OM5KV | 2026-08-31 06:35:47 | 44.11060 | 22.77791 | 190° | 5km/h | 29934m | 8.6m/s | -41.4°C | 0.0% | 0hPa | 0V | 00:00:00 | 00:00:00 | 00:00:00 | |
| OM5KV | 2026-08-31 06:35:46 | 44.11062 | 22.77792 | 191° | 13km/h | 29927m | 7.2m/s | -41.3°C | 0.0% | 0hPa | 0V | 00:00:00 | 00:00:00 | 00:00:00 | |
| OM5KV | 2026-08-31 06:35:40 | 44.11070 | 22.77804 | 311° | 9km/h | 29884m | 6.8m/s | -41.5°C | 0.0% | 0hPa | 0V | 00:00:00 | 00:00:00 | 00:00:00 | |
| OM5KV | 2026-08-31 06:35:34 | 44.11076 | 22.77834 | 311° | 15km/h | 29841m | 4.8m/s | -41.5°C | 0.0% | 0hPa | 0V | 00:00:00 | 00:00:00 | 00:00:00 | |
| OM5KV | 2026-08-31 06:35:28 | 44.11069 | 22.77836 | 0° | 0km/h | 29800m | 7.6m/s | -41.4°C | 0.0% | 0hPa | 0V | 00:00:00 | 00:00:00 | 00:00:00 | |
| OM5KV | 2026-08-31 06:35:13 | 44.11070 | 22.77834 | 174° | 9km/h | 29693m | 6.8m/s | -41.1°C | 0.0% | 0hPa | 0V | 00:00:00 | 00:00:00 | 00:00:00 | |
| OM5KV | 2026-08-31 06:35:01 | 44.11092 | 22.77818 | 209° | 16km/h | 29609m | 6.6m/s | -42.0°C | 0.0% | 0hPa | 0V | 00:00:00 | 00:00:00 | 00:00:00 | |
| OM5KV | 2026-08-31 06:34:53 | 44.11112 | 22.77807 | 136° | 11km/h | 29549m | 9.1m/s | -41.8°C | 0.0% | 0hPa | 0V | 00:00:00 | 00:00:00 | 00:00:00 | |
| OM5KV | 2026-08-31 06:34:41 | 44.11130 | 22.77768 | 113° | 11km/h | 29457m | 7.6m/s | -41.8°C | 0.0% | 0hPa | 0V | 00:00:00 | 00:00:00 | 00:00:00 | |
| OM5KV | 2026-08-31 06:34:34 | 44.11136 | 22.77738 | 63° | 27km/h | 29416m | 5.8m/s | -41.7°C | 0.0% | 0hPa | 0V | 00:00:00 | 00:00:00 | 00:00:00 | |
| LZ4TU-5 | 2026-08-31 06:33:16 | 44.11040 | 22.77614 | 268° | 11km/h | 28868m | 8.0m/s | -43.1°C | 0.0% | 0hPa | 0V | 00:00:00 | 00:00:00 | 00:00:00 | |
| LZ4TU-5 | 2026-08-31 06:33:11 | 44.11052 | 22.77616 | 106° | 9km/h | 28835m | 4.8m/s | -43.2°C | 0% | 0hPa | 0V | 00:00:00 | 00:00:00 | 00:00:00 | |
| LZ4TU-5 | 2026-08-31 06:31:47 | 44.11084 | 22.77407 | 8° | 11km/h | 28246m | 5.7m/s | -47.3°C | 0.0% | 0hPa | 0V | 00:00:00 | 00:00:00 | 00:00:00 | |
| LZ4TU-5 | 2026-08-31 06:31:42 | 44.11068 | 22.77402 | 18° | 5km/h | 28206m | 10.4m/s | -47.7°C | 0.0% | 0hPa | 0V | 00:00:00 | 00:00:00 | 00:00:00 | |
| LZ4TU-5 | 2026-08-31 06:30:19 | 44.10933 | 22.77443 | 198° | 9km/h | 27606m | 6.3m/s | -47.0°C | 0.0% | 0hPa | 0V | 00:00:00 | 00:00:00 | 00:00:00 | |
| LZ4TU-5 | 2026-08-31 06:28:53 | 44.10762 | 22.77463 | 2° | 15km/h | 26992m | 8.4m/s | -46.3°C | 0.0% | 0hPa | 0V | 00:00:00 | 00:00:00 | 00:00:00 | |
| LZ4TU-5 | 2026-08-31 06:28:48 | 44.10747 | 22.77457 | 300° | 11km/h | 26958m | 5.9m/s | -46.4°C | 0% | 0hPa | 0V | 00:00:00 | 00:00:00 | 00:00:00 | |
| LZ4TU-5 | 2026-08-31 06:27:26 | 44.10601 | 22.77840 | 328° | 11km/h | 26414m | 7.8m/s | -46.9°C | 0.0% | 0hPa | 0V | 00:00:00 | 00:00:00 | 00:00:00 | |
| LZ4TU-5 | 2026-08-31 06:27:22 | 44.10586 | 22.77853 | 319° | 16km/h | 26389m | 4.6m/s | -47.1°C | 0.0% | 0hPa | 0V | 00:00:00 | 00:00:00 | 00:00:00 | |
| LZ4TU-5 | 2026-08-31 06:26:01 | 44.10465 | 22.77911 | 80° | 16km/h | 25848m | 5.1m/s | -49.6°C | 0.0% | 0hPa | 0V | 00:00:00 | 00:00:00 | 00:00:00 | |
| LZ4TU-5 | 2026-08-31 06:25:56 | 44.10456 | 22.77912 | 289° | 13km/h | 25815m | 7.0m/s | -49.7°C | 0.0% | 0hPa | 0V | 00:00:00 | 00:00:00 | 00:00:00 | |
| LZ4TU-5 | 2026-08-31 06:24:33 | 44.10300 | 22.78331 | 264° | 16km/h | 25265m | 6.3m/s | -51.5°C | 0.0% | 0hPa | 0V | 00:00:00 | 00:00:00 | 00:00:00 | |
| LZ4TU-5 | 2026-08-31 06:24:28 | 44.10304 | 22.78338 | 200° | 16km/h | 25231m | 5.6m/s | -51.3°C | 0.0% | 0hPa | 0V | 00:00:00 | 00:00:00 | 00:00:00 | |
| LZ4TU-5 | 2026-08-31 06:23:06 | 44.10058 | 22.78434 | 43° | 22km/h | 24702m | 7.0m/s | -51.6°C | 0.0% | 0hPa | 0V | 00:00:00 | 00:00:00 | 00:00:00 | |
| LZ4TU-5 | 2026-08-31 06:23:02 | 44.10032 | 22.78431 | 331° | 33km/h | 24675m | 9.2m/s | -51.6°C | 0.0% | 0hPa | 0V | 00:00:00 | 00:00:00 | 00:00:00 | |
| LZ4TU-5 | 2026-08-31 06:21:33 | 44.09703 | 22.78822 | 286° | 16km/h | 24089m | 9.6m/s | -52.0°C | 0.0% | 0hPa | 0V | 00:00:00 | 00:00:00 | 00:00:00 | |
| LZ4TU-5 | 2026-08-31 06:21:28 | 44.09698 | 22.78853 | 307° | 24km/h | 24057m | 7.1m/s | -52.3°C | 0.0% | 0hPa | 0V | 00:00:00 | 00:00:00 | 00:00:00 | |
| LZ4TU-5 | 2026-08-31 06:20:07 | 44.09579 | 22.79303 | 257° | 24km/h | 23516m | 4.3m/s | -52.0°C | 0.0% | 0hPa | 0V | 00:00:00 | 00:00:00 | 00:00:00 | |
| LZ4TU-5 | 2026-08-31 06:20:02 | 44.09569 | 22.79338 | 299° | 26km/h | 23483m | 5.8m/s | -51.9°C | 0.0% | 0hPa | 0V | 00:00:00 | 00:00:00 | 00:00:00 | |
| LZ4TU-5 | 2026-08-31 06:18:39 | 44.09472 | 22.79594 | 331° | 40km/h | 22935m | 3.8m/s | -53.2°C | 0.0% | 0hPa | 0V | 00:00:00 | 00:00:00 | 00:00:00 | |
| LZ4TU-5 | 2026-08-31 06:17:14 | 44.09238 | 22.80086 | 309° | 18km/h | 22392m | 5.8m/s | -54.1°C | 0.0% | 0hPa | 0V | 00:00:00 | 00:00:00 | 00:00:00 | |
| LZ4TU-5 | 2026-08-31 06:17:09 | 44.09242 | 22.80083 | 116° | 11km/h | 22362m | 6.7m/s | -54.0°C | 0.0% | 0hPa | 0V | 00:00:00 | 00:00:00 | 00:00:00 | |
| LZ4TU-5 | 2026-08-31 06:15:45 | 44.09172 | 22.80160 | 89° | 4km/h | 21832m | 6.0m/s | -53.9°C | 0.0% | 0hPa | 0V | 00:00:00 | 00:00:00 | 00:00:00 | |
| LZ4TU-5 | 2026-08-31 06:15:40 | 44.09160 | 22.80169 | 314° | 20km/h | 21798m | 9.3m/s | -54.3°C | 0.0% | 0hPa | 0V | 00:00:00 | 00:00:00 | 00:00:00 | |
| LZ4TU-5 | 2026-08-31 06:14:16 | 44.09254 | 22.80380 | 270° | 22km/h | 21277m | 7.0m/s | -54.5°C | 0.0% | 0hPa | 0V | 00:00:00 | 00:00:00 | 00:00:00 | |
| LZ4TU-5 | 2026-08-31 06:14:12 | 44.09261 | 22.80386 | 104° | 7km/h | 21252m | 5.3m/s | -54.5°C | 0.0% | 0hPa | 0V | 00:00:00 | 00:00:00 | 00:00:00 | |
| LZ4TU-5 | 2026-08-31 06:12:51 | 44.09321 | 22.80437 | 161° | 7km/h | 20725m | 6.0m/s | -55.0°C | 0.0% | 0hPa | 0V | 00:00:00 | 00:00:00 | 00:00:00 | |
| LZ4TU-5 | 2026-08-31 06:12:46 | 44.09341 | 22.80437 | 182° | 29km/h | 20695m | 7.6m/s | -55.3°C | 0.0% | 0hPa | 0V | 00:00:00 | 00:00:00 | 00:00:00 | |
| LZ4TU-5 | 2026-08-31 06:11:21 | 44.09379 | 22.80465 | 267° | 15km/h | 20143m | 4.2m/s | -55.4°C | 0.0% | 0hPa | 0V | 00:00:00 | 00:00:00 | 00:00:00 | |
| LZ4TU-5 | 2026-08-31 06:11:16 | 44.09384 | 22.80496 | 259° | 13km/h | 20108m | 7.1m/s | -55.3°C | 0.0% | 0hPa | 0V | 00:00:00 | 00:00:00 | 00:00:00 | |
| LZ4TU-5 | 2026-08-31 06:09:51 | 44.09454 | 22.80580 | 191° | 11km/h | 19579m | 5.1m/s | -56.5°C | 0.0% | 0hPa | 0V | 00:00:00 | 00:00:00 | 00:00:00 | |
| LZ4TU-5 | 2026-08-31 06:09:46 | 44.09460 | 22.80592 | 299° | 9km/h | 19548m | 4.7m/s | -56.4°C | 0% | 0hPa | 0V | 00:00:00 | 00:00:00 | 00:00:00 | |
| LZ4TU-5 | 2026-08-31 06:08:24 | 44.09383 | 22.80414 | 94° | 20km/h | 19038m | 3.8m/s | -57.1°C | 0.0% | 0hPa | 0V | 00:00:00 | 00:00:00 | 00:00:00 | |
| LZ4TU-5 | 2026-08-31 06:08:19 | 44.09382 | 22.80396 | 7° | 11km/h | 19006m | 4.6m/s | -57.0°C | 0.0% | 0hPa | 0V | 00:00:00 | 00:00:00 | 00:00:00 | |
| LZ4TU-5 | 2026-08-31 06:06:49 | 44.09238 | 22.80101 | 95° | 22km/h | 18439m | 7.1m/s | -57.2°C | 0.0% | 0hPa | 0V | 00:00:00 | 00:00:00 | 00:00:00 | |
| LZ4TU-5 | 2026-08-31 06:06:44 | 44.09261 | 22.80101 | 249° | 29km/h | 18410m | 6.6m/s | -57.5°C | 0.0% | 0hPa | 0V | 00:00:00 | 00:00:00 | 00:00:00 | |
| LZ4TU-5 | 2026-08-31 06:05:21 | 44.09446 | 22.79814 | 114° | 22km/h | 17920m | 4.4m/s | -59.4°C | 0.0% | 0hPa | 0V | 00:00:00 | 00:00:00 | 00:00:00 | |
| LZ4TU-5 | 2026-08-31 06:05:16 | 44.09467 | 22.79752 | 121° | 42km/h | 17888m | 5.9m/s | -59.9°C | 0.0% | 0hPa | 0V | 00:00:00 | 00:00:00 | 00:00:00 | |
| LZ4TU-5 | 2026-08-31 06:03:51 | 44.09491 | 22.79078 | 146° | 20km/h | 17370m | 6.7m/s | -59.7°C | 0.0% | 0hPa | 0V | 00:00:00 | 00:00:00 | 00:00:00 | |
| LZ4TU-5 | 2026-08-31 06:02:23 | 44.09783 | 22.78582 | 111° | 20km/h | 16834m | 6.7m/s | -58.1°C | 0.2% | 0hPa | 0V | 00:00:00 | 00:00:00 | 00:00:00 | |
| LZ4TU-5 | 2026-08-31 06:02:18 | 44.09799 | 22.78540 | 127° | 33km/h | 16801m | 6.3m/s | -58.1°C | 0.2% | 0hPa | 0V | 00:00:00 | 00:00:00 | 00:00:00 | |
| LZ4TU-5 | 2026-08-31 06:00:44 | 44.09988 | 22.77329 | 79° | 51km/h | 16267m | 5.2m/s | -59.9°C | 1.4% | 0hPa | 0V | 00:00:00 | 00:00:00 | 00:00:00 | |
| LZ4TU-5 | 2026-08-31 06:00:40 | 44.09982 | 22.77253 | 89° | 58km/h | 16245m | 3.6m/s | -59.6°C | 1.4% | 0hPa | 0V | 00:00:00 | 00:00:00 | 00:00:00 | |
| LZ4TU-5 | 2026-08-31 05:59:16 | 44.09832 | 22.75938 | 81° | 35km/h | 15749m | 5.3m/s | -59.2°C | 2.2% | 0hPa | 0V | 00:00:00 | 00:00:00 | 00:00:00 | |
| LZ4TU-5 | 2026-08-31 05:59:11 | 44.09825 | 22.75900 | 93° | 27km/h | 15720m | 6.4m/s | -59.3°C | 0% | 0hPa | 0V | 00:00:00 | 00:00:00 | 00:00:00 | |
| LZ4TU-5 | 2026-08-31 05:57:40 | 44.10025 | 22.74961 | 131° | 27km/h | 15140m | 7.9m/s | -58.7°C | 4.3% | 0hPa | 0V | 00:00:00 | 00:00:00 | 00:00:00 | |
| LZ4TU-5 | 2026-08-31 05:57:36 | 44.10049 | 22.74929 | 146° | 35km/h | 15114m | 5.1m/s | -58.9°C | 4.4% | 0hPa | 0V | 00:00:00 | 00:00:00 | 00:00:00 | |
| LZ4TU-5 | 2026-08-31 05:56:13 | 44.10567 | 22.73584 | 117° | 53km/h | 14596m | 5.9m/s | -58.6°C | 4.4% | 0hPa | 0V | 00:00:00 | 00:00:00 | 00:00:00 | |
| LZ4TU-5 | 2026-08-31 05:56:08 | 44.10605 | 22.73514 | 121° | 49km/h | 14568m | 5.7m/s | -58.5°C | 4.6% | 0hPa | 0V | 00:00:00 | 00:00:00 | 00:00:00 | |
| LZ4TU-5 | 2026-08-31 05:54:44 | 44.11040 | 22.72358 | 135° | 47km/h | 14085m | 5.3m/s | -57.4°C | 6.8% | 0hPa | 0V | 00:00:00 | 00:00:00 | 00:00:00 | |
| LZ4TU-5 | 2026-08-31 05:54:39 | 44.11088 | 22.72298 | 138° | 47km/h | 14058m | 5.2m/s | -57.8°C | 6.9% | 0hPa | 0V | 00:00:00 | 00:00:00 | 00:00:00 | |
| LZ4TU-5 | 2026-08-31 05:53:16 | 44.11770 | 22.71030 | 149° | 55km/h | 13559m | 5.6m/s | -57.2°C | 8.8% | 0hPa | 0V | 00:00:00 | 00:00:00 | 00:00:00 | |
| LZ4TU-5 | 2026-08-31 05:53:12 | 44.11808 | 22.70975 | 116° | 47km/h | 13536m | 6.6m/s | -57.2°C | 9.0% | 0hPa | 0V | 00:00:00 | 00:00:00 | 00:00:00 | |
| LZ4TU-5 | 2026-08-31 05:51:41 | 44.12619 | 22.69464 | 135° | 58km/h | 12988m | 3.6m/s | -56.8°C | 15.6% | 0hPa | 0V | 00:00:00 | 00:00:00 | 00:00:00 | |
| LZ4TU-5 | 2026-08-31 05:51:36 | 44.12664 | 22.69395 | 125° | 60km/h | 12963m | 6.6m/s | -56.9°C | 16.1% | 0hPa | 0V | 00:00:00 | 00:00:00 | 00:00:00 | |
| LZ4TU-5 | 2026-08-31 05:50:10 | 44.13792 | 22.68473 | 168° | 93km/h | 12418m | 3.4m/s | -56.5°C | 25.7% | 0hPa | 0V | 00:00:00 | 00:00:00 | 00:00:00 | |
| LZ4TU-5 | 2026-08-31 05:48:47 | 44.15105 | 22.67582 | 147° | 47km/h | 11952m | 6.9m/s | -54.9°C | 34.6% | 0hPa | 0V | 00:00:00 | 00:00:00 | 00:00:00 | |
| LZ4TU-5 | 2026-08-31 05:48:42 | 44.15174 | 22.67545 | 158° | 71km/h | 11918m | 5.3m/s | -54.7°C | 35.4% | 0hPa | 0V | 00:00:00 | 00:00:00 | 00:00:00 | |
| LZ4TU-5 | 2026-08-31 05:47:21 | 44.16196 | 22.66349 | 130° | 68km/h | 11455m | 7.8m/s | -52.0°C | 35.5% | 0hPa | 0V | 00:00:00 | 00:00:00 | 00:00:00 | |
| LZ4TU-5 | 2026-08-31 05:47:17 | 44.16236 | 22.66266 | 135° | 66km/h | 11426m | 6.8m/s | -51.7°C | 35.3% | 0hPa | 0V | 00:00:00 | 00:00:00 | 00:00:00 | |
| LZ4TU-5 | 2026-08-31 05:47:12 | 44.16291 | 22.66200 | 134° | 53km/h | 11388m | 9.0m/s | -51.4°C | 35.2% | 0hPa | 0V | 00:00:00 | 00:00:00 | 00:00:00 | |
| LZ4TU-5 | 2026-08-31 05:47:07 | 44.16346 | 22.66111 | 134° | 77km/h | 11352m | 6.8m/s | -51.0°C | 35.2% | 0hPa | 0V | 00:00:00 | 00:00:00 | 00:00:00 | |
| LZ4TU-5 | 2026-08-31 05:45:39 | 44.17325 | 22.64692 | 142° | 62km/h | 10845m | 4.2m/s | -47.1°C | 33.0% | 0hPa | 0V | 00:00:00 | 00:00:00 | 00:00:00 | |
| LZ4TU-5 | 2026-08-31 05:45:34 | 44.17390 | 22.64599 | 133° | 82km/h | 10811m | 5.6m/s | -46.8°C | 31.9% | 0hPa | 0V | 00:00:00 | 00:00:00 | 00:00:00 | |
| LZ4TU-5 | 2026-08-31 05:44:11 | 44.18304 | 22.63390 | 136° | 68km/h | 10308m | 5.0m/s | -42.4°C | 30.9% | 0hPa | 0V | 00:00:00 | 00:00:00 | 00:00:00 | |
| LZ4TU-5 | 2026-08-31 05:44:06 | 44.18367 | 22.63306 | 143° | 55km/h | 10282m | 4.9m/s | -42.3°C | 0% | 0hPa | 0V | 00:00:00 | 00:00:00 | 00:00:00 | |
| LZ4TU-5 | 2026-08-31 05:42:44 | 44.19280 | 22.62019 | 128° | 66km/h | 9829m | 4.3m/s | -38.9°C | 28.5% | 0hPa | 0V | 00:00:00 | 00:00:00 | 00:00:00 | |
| LZ4TU-5 | 2026-08-31 05:42:39 | 44.19344 | 22.61936 | 144° | 53km/h | 9805m | 4.9m/s | -38.7°C | 28.0% | 0hPa | 0V | 00:00:00 | 00:00:00 | 00:00:00 | |
| LZ4TU-5 | 2026-08-31 05:41:16 | 44.20184 | 22.60868 | 127° | 49km/h | 9306m | 7.5m/s | -34.1°C | 19.9% | 0hPa | 0V | 00:00:00 | 00:00:00 | 00:00:00 | |
| LZ4TU-5 | 2026-08-31 05:41:11 | 44.20217 | 22.60819 | 149° | 55km/h | 9282m | 5.3m/s | -33.8°C | 19.6% | 0hPa | 0V | 00:00:00 | 00:00:00 | 00:00:00 | |
| LZ4TU-5 | 2026-08-31 05:39:47 | 44.20950 | 22.60090 | 152° | 42km/h | 8794m | 7.0m/s | -29.7°C | 18.8% | 0hPa | 0V | 00:00:00 | 00:00:00 | 00:00:00 | |
| LZ4TU-5 | 2026-08-31 05:39:42 | 44.20969 | 22.60035 | 98° | 18km/h | 8763m | 5.3m/s | -29.4°C | 18.7% | 0hPa | 0V | 00:00:00 | 00:00:00 | 00:00:00 | |
| LZ4TU-5 | 2026-08-31 05:38:13 | 44.21558 | 22.59494 | 163° | 24km/h | 8247m | 4.6m/s | -25.7°C | 10.3% | 0hPa | 0V | 00:00:00 | 00:00:00 | 00:00:00 | |
| LZ4TU-5 | 2026-08-31 05:38:08 | 44.21554 | 22.59447 | 94° | 46km/h | 8218m | 4.3m/s | -25.6°C | 0% | 0hPa | 0V | 00:00:00 | 00:00:00 | 00:00:00 | |
| LZ4TU-5 | 2026-08-31 05:36:36 | 44.21965 | 22.58753 | 89° | 31km/h | 7662m | 6.1m/s | -20.9°C | 12.5% | 0hPa | 0V | 00:00:00 | 00:00:00 | 00:00:00 | |
| LZ4TU-5 | 2026-08-31 05:35:19 | 44.22211 | 22.58094 | 171° | 27km/h | 7207m | 5.2m/s | -16.8°C | 8.3% | 0hPa | 0V | 00:00:00 | 00:00:00 | 00:00:00 | |
| LZ4TU-5 | 2026-08-31 05:35:15 | 44.22220 | 22.58082 | 88° | 27km/h | 7191m | 5.7m/s | -16.7°C | 8.3% | 0hPa | 0V | 00:00:00 | 00:00:00 | 00:00:00 | |
| LZ4TU-5 | 2026-08-31 05:33:57 | 44.22450 | 22.57342 | 61° | 15km/h | 6710m | 6.8m/s | -13.4°C | 8.9% | 0hPa | 0V | 00:00:00 | 00:00:00 | 00:00:00 | |
| LZ4TU-5 | 2026-08-31 05:33:52 | 44.22455 | 22.57298 | 143° | 35km/h | 6678m | 6.6m/s | -13.2°C | 9.1% | 0hPa | 0V | 00:00:00 | 00:00:00 | 00:00:00 | |
| LZ4TU-5 | 2026-08-31 05:32:41 | 44.22691 | 22.56696 | 114° | 24km/h | 6268m | 5.5m/s | -10.2°C | 11.7% | 0hPa | 0V | 00:00:00 | 00:00:00 | 00:00:00 | |
| LZ4TU-5 | 2026-08-31 05:32:36 | 44.22699 | 22.56643 | 88° | 38km/h | 6242m | 2.9m/s | -10.0°C | 12.2% | 0hPa | 0V | 00:00:00 | 00:00:00 | 00:00:00 | |
| LZ4TU-5 | 2026-08-31 05:31:07 | 44.23001 | 22.56142 | 197° | 26km/h | 5696m | 4.2m/s | -6.8°C | 7.1% | 0hPa | 0V | 00:00:00 | 00:00:00 | 00:00:00 | |
| LZ4TU-5 | 2026-08-31 05:31:02 | 44.23018 | 22.56111 | 121° | 42km/h | 5667m | 4.8m/s | -6.7°C | 9.0% | 0hPa | 0V | 00:00:00 | 00:00:00 | 00:00:00 | |
| LZ4TU-5 | 2026-08-31 05:29:46 | 44.23344 | 22.55674 | 185° | 7km/h | 5211m | 5.8m/s | -6.1°C | 32.2% | 0hPa | 0V | 00:00:00 | 00:00:00 | 00:00:00 | |
| LZ4TU-5 | 2026-08-31 05:28:36 | 44.23487 | 22.55259 | 158° | 22km/h | 4795m | 6.3m/s | -3.9°C | 56.8% | 0hPa | 0V | 00:00:00 | 00:00:00 | 00:00:00 | |
| LZ4TU-5 | 2026-08-31 05:28:32 | 44.23484 | 22.55251 | 63° | 18km/h | 4771m | 4.5m/s | -3.7°C | 55.9% | 0hPa | 0V | 00:00:00 | 00:00:00 | 00:00:00 | |
| LZ4TU-5 | 2026-08-31 05:27:21 | 44.23599 | 22.54921 | 147° | 15km/h | 4339m | 5.5m/s | 0.6°C | 18.8% | 0hPa | 0V | 00:00:00 | 00:00:00 | 00:00:00 | |
| LZ4TU-5 | 2026-08-31 05:27:16 | 44.23610 | 22.54894 | 127° | 4km/h | 4308m | 7.0m/s | 0.8°C | 0% | 0hPa | 0V | 00:00:00 | 00:00:00 | 00:00:00 | |
| LZ4TU-5 | 2026-08-31 05:25:30 | 44.23938 | 22.54041 | 135° | 38km/h | 3697m | 4.9m/s | 3.5°C | 66.4% | 0hPa | 0V | 00:00:00 | 00:00:00 | 00:00:00 | |
| LZ4TU-5 | 2026-08-31 05:25:25 | 44.23950 | 22.54001 | 106° | 35km/h | 3666m | 5.5m/s | 3.6°C | 0% | 0hPa | 0V | 00:00:00 | 00:00:00 | 00:00:00 | |
| LZ4TU-5 | 2026-08-31 05:24:26 | 44.24187 | 22.53395 | 119° | 31km/h | 3324m | 6.5m/s | 6.1°C | 59.5% | 0hPa | 0V | 00:00:00 | 00:00:00 | 00:00:00 | |
| LZ4TU-5 | 2026-08-31 05:24:22 | 44.24210 | 22.53360 | 123° | 31km/h | 3302m | 5.2m/s | 6.3°C | 58.3% | 0hPa | 0V | 00:00:00 | 00:00:00 | 00:00:00 | |
| LZ4TU-5 | 2026-08-31 05:23:24 | 44.24439 | 22.52834 | 116° | 29km/h | 2958m | 5.6m/s | 9.3°C | 39.4% | 0hPa | 0V | 00:00:00 | 00:00:00 | 00:00:00 | |
| LZ4TU-5 | 2026-08-31 05:23:20 | 44.24461 | 22.52803 | 136° | 38km/h | 2934m | 5.5m/s | 9.6°C | 0% | 0hPa | 0V | 00:00:00 | 00:00:00 | 00:00:00 | |
| LZ4TU-5 | 2026-08-31 05:22:22 | 44.24675 | 22.52320 | 141° | 22km/h | 2590m | 5.7m/s | 12.3°C | 22.5% | 0hPa | 0V | 00:00:00 | 00:00:00 | 00:00:00 | |
| LZ4TU-5 | 2026-08-31 05:22:17 | 44.24678 | 22.52288 | 98° | 16km/h | 2561m | 5.2m/s | 12.5°C | 21.8% | 0hPa | 0V | 00:00:00 | 00:00:00 | 00:00:00 | |
| LZ4TU-5 | 2026-08-31 05:21:19 | 44.24751 | 22.51975 | 0° | 0km/h | 2225m | 5.5m/s | 12.6°C | 55.5% | 0hPa | 0V | 00:00:00 | 00:00:00 | 00:00:00 | |
| LZ4TU-5 | 2026-08-31 05:21:15 | 44.24747 | 22.51965 | 39° | 16km/h | 2201m | 5.9m/s | 12.7°C | 0% | 0hPa | 0V | 00:00:00 | 00:00:00 | 00:00:00 | |
| LZ4TU-5 | 2026-08-31 05:20:17 | 44.24544 | 22.52009 | 140° | 4km/h | 1863m | 5.9m/s | 14.9°C | 64.6% | 0hPa | 0V | 00:00:00 | 00:00:00 | 00:00:00 | |
| LZ4TU-5 | 2026-08-31 05:20:12 | 44.24536 | 22.52029 | 337° | 27km/h | 1833m | 6.9m/s | 15.1°C | 63.2% | 0hPa | 0V | 00:00:00 | 00:00:00 | 00:00:00 | |
| LZ4TU-5 | 2026-08-31 05:19:15 | 44.24381 | 22.52364 | 304° | 20km/h | 1498m | 5.8m/s | 17.3°C | 58.3% | 0hPa | 0V | 00:00:00 | 00:00:00 | 00:00:00 | |
| LZ4TU-5 | 2026-08-31 05:19:10 | 44.24352 | 22.52406 | 305° | 26km/h | 1471m | 5.7m/s | 17.5°C | 0% | 0hPa | 0V | 00:00:00 | 00:00:00 | 00:00:00 | |
| LZ4TU-5 | 2026-08-31 05:18:12 | 44.24156 | 22.52877 | 301° | 33km/h | 1136m | 5.5m/s | 19.8°C | 52.5% | 0hPa | 0V | 00:00:00 | 00:00:00 | 00:00:00 | |
| LZ4TU-5 | 2026-08-31 05:18:07 | 44.24140 | 22.52917 | 307° | 26km/h | 1107m | 5.4m/s | 19.9°C | 52.1% | 0hPa | 0V | 00:00:00 | 00:00:00 | 00:00:00 | |
| LZ4TU-5 | 2026-08-31 05:17:09 | 44.23927 | 22.53313 | 329° | 24km/h | 752m | 6.6m/s | 21.8°C | 50.0% | 0hPa | 0V | 00:00:00 | 00:00:00 | 00:00:00 | |
| LZ4TU-5 | 2026-08-31 05:17:05 | 44.23910 | 22.53334 | 319° | 20km/h | 726m | 6.5m/s | 21.5°C | 0% | 0hPa | 0V | 00:00:00 | 00:00:00 | 00:00:00 | |
| LZ4TU-5 | 2026-08-31 05:16:07 | 44.23870 | 22.53581 | 300° | 11km/h | 379m | 7.0m/s | 20.9°C | 60.9% | 0hPa | 0V | 00:00:00 | 00:00:00 | 00:00:00 | |
| LZ4TU-5 | 2026-08-31 05:16:02 | 44.23875 | 22.53620 | 280° | 24km/h | 350m | 6.5m/s | 21.1°C | 0% | 0hPa | 0V | 00:00:00 | 00:00:00 | 00:00:00 |